Latest Weather Observations for Esperance Airport

IDW60801

Issued at 1:32 pm WST Sunday 30 August 2015 (issued every 30 minutes, with the page automatically refreshed every 10 minutes)

About weather observations | Map of weather stations | Latest weather observations for WA | Other Formats
Station Details ID: 009542 Name: ESPERANCE AERO Lat: -33.68 Lon: 121.83 Height: 142.0 m
Data from the previous 72 hours. | See also: Recent months at Esperance Airport
Date/Time
WST
Temp
°C
App
Temp
°C
Dew
Point
Rel
Hum
%
Delta-T
°C
Wind Press
QNH
hPa
Press
MSL
hPa
Rain
since 9 am
mm
Dir
 
Spd
km/h
Gust
km/h
Spd
kts
Gust
kts
30/01:30pm 17.4 12.5 12.5 73 2.7 WSW 30 41 16 22 1017.8 1017.8 0.0
30/01:00pm 16.8 11.6 11.5 71 2.9 SW 30 39 16 21 1017.7 1017.7 0.0
30/12:30pm 17.1 11.6 12.6 75 2.5 SW 33 41 18 22 1017.8 1017.8 0.0
30/12:00pm 16.1 10.8 13.2 83 1.6 WSW 33 44 18 24 1017.9 1017.9 0.0
30/11:30am 17.1 12.0 13.0 77 2.3 SW 32 41 17 22 1017.8 1017.8 0.0
30/11:00am 16.9 12.1 13.0 78 2.2 WSW 30 39 16 21 1017.8 1017.8 0.0
30/10:30am 16.7 12.2 13.8 83 1.7 WSW 30 37 16 20 1017.7 1017.7 0.0
30/10:00am 16.1 11.6 13.9 87 1.2 WSW 30 39 16 21 1017.4 1017.4 0.0
30/09:30am 15.6 12.1 13.4 87 1.2 WSW 24 32 13 17 1017.1 1017.1 0.0
30/09:00am 15.6 12.3 14.1 91 0.9 WSW 24 30 13 16 1016.8 1016.8 0.4
30/08:30am 15.0 12.1 14.0 94 0.6 W 22 32 12 17 1016.6 1016.6 0.4
30/08:00am 13.7 11.0 13.4 98 0.2 W 20 26 11 14 1016.2 1016.3 0.4
30/07:30am 12.3 9.7 12.1 99 0.1 WNW 17 22 9 12 1016.1 1016.2 0.4
30/07:00am 11.2 8.7 11.0 99 0.1 WNW 15 17 8 9 1015.4 1015.4 0.4
30/06:30am 10.8 8.5 10.6 99 0.1 NW 13 17 7 9 1014.9 1014.9 0.4
30/06:00am 10.4 8.0 10.2 99 0.1 WNW 13 15 7 8 1014.4 1014.4 0.4
30/05:30am 11.0 8.4 10.8 99 0.1 WNW 15 17 8 9 1014.1 1014.1 0.4
30/05:00am 11.9 9.2 11.7 99 0.1 WNW 17 22 9 12 1013.8 1013.8 0.4
30/04:30am 11.9 9.6 11.7 99 0.1 NW 15 20 8 11 1013.4 1013.4 0.4
30/04:00am 12.9 10.8 12.4 97 0.3 WNW 15 19 8 10 1013.1 1013.1 0.4
30/03:30am 13.2 11.3 12.9 98 0.2 WNW 15 17 8 9 1012.9 1012.9 0.4
30/03:00am 13.5 11.6 12.9 96 0.3 WNW 15 17 8 9 1013.0 1013.0 0.4
30/02:30am 14.1 11.8 13.0 93 0.6 WNW 17 19 9 10 1012.9 1012.9 0.4
30/02:00am 14.4 12.9 13.1 92 0.7 NW 13 17 7 9 1012.9 1012.9 0.4
30/01:30am 14.5 12.6 13.0 91 0.8 WNW 15 17 8 9 1013.1 1013.1 0.4
30/01:00am 14.9 13.0 13.1 89 1.0 WNW 15 19 8 10 1013.1 1013.1 0.4
30/12:30am 15.1 12.8 13.1 88 1.1 WNW 17 19 9 10 1013.2 1013.2 0.4
30/12:00am 14.7 13.2 13.1 90 0.9 WNW 13 15 7 8 1013.1 1013.1 0.4
 
Date/Time
WST
Temp
°C
App
Temp
°C
Dew
Point
Rel
Hum
%
Delta-T
°C
Wind Press
QNH
hPa
Press
MSL
hPa
Rain
since 9 am
mm
Dir
 
Spd
km/h
Gust
km/h
Spd
kts
Gust
kts
29/11:30pm 14.9 13.8 13.1 89 1.0 NW 11 15 6 8 1013.1 1013.1 0.4
29/11:00pm 14.5 13.5 13.4 93 0.6 NNW 11 13 6 7 1013.1 1013.1 0.4
29/10:30pm 13.8 12.9 12.7 93 0.6 NNW 9 11 5 6 1013.3 1013.3 0.4
29/10:00pm 14.9 14.0 13.6 92 0.7 N 11 11 6 6 1013.3 1013.3 0.4
29/09:30pm 14.9 14.7 14.6 98 0.2 N 9 13 5 7 1013.5 1013.5 0.4
29/09:00pm 14.7 14.1 14.5 99 0.1 N 11 13 6 7 1013.7 1013.7 0.4
29/08:30pm 15.6 15.8 14.6 94 0.6 NNW 7 13 4 7 1013.5 1013.5 0.4
29/08:00pm 18.0 13.9 13.9 77 2.4 NNW 28 39 15 21 1013.6 1013.6 0.0
29/07:30pm 19.4 15.9 13.3 68 3.5 NNW 24 39 13 21 1013.0 1013.0 0.0
29/07:00pm 19.2 16.5 13.4 69 3.3 N 20 28 11 15 1012.2 1012.2 0.0
29/06:30pm 18.6 17.2 13.5 72 2.9 NNW 13 20 7 11 1012.0 1012.0 0.0
29/06:02pm 20.8 16.0 12.8 60 4.6 NNW 30 50 16 27 1011.8 1011.8 0.0
29/06:00pm 21.1 16.6 12.5 58 4.9 NNW 28 50 15 27 1011.8 1011.8 0.0
29/05:34pm 21.1 17.9 13.0 60 4.6 NNW 22 50 12 27 1011.0 1011.0 0.0
29/05:30pm 20.5 18.4 13.5 64 4.0 N 17 22 9 12 1011.0 1011.0 0.0
29/05:00pm 21.1 19.7 13.3 61 4.5 NNE 13 17 7 9 1010.3 1010.3 0.0
29/04:30pm 21.1 20.0 14.3 65 4.0 N 13 17 7 9 1010.3 1010.3 0.0
29/04:00pm 22.9 21.4 14.2 58 5.1 N 15 19 8 10 1010.5 1010.5 0.0
29/03:30pm 23.3 20.4 12.9 52 6.0 N 20 26 11 14 1010.7 1010.7 0.0
29/03:00pm 23.8 20.1 11.5 46 7.0 N 22 32 12 17 1011.0 1011.0 0.0
29/02:30pm 24.6 20.1 12.5 46 7.0 N 28 39 15 21 1011.0 1011.0 0.0
29/02:00pm 24.4 19.9 12.7 48 6.8 N 28 37 15 20 1011.3 1011.3 0.0
29/01:30pm 23.8 18.5 11.2 45 7.1 N 30 41 16 22 1011.6 1011.6 0.0
29/01:00pm 23.5 18.6 11.2 46 6.9 N 28 39 15 21 1012.1 1012.1 0.0
29/12:30pm 22.6 16.9 11.0 48 6.5 N 32 37 17 20 1012.6 1012.6 0.0
29/12:00pm 22.2 16.9 11.3 50 6.1 N 30 41 16 22 1013.3 1013.3 0.0
29/11:30am 21.7 16.7 12.3 55 5.3 N 30 39 16 21 1013.9 1013.9 0.0
29/11:00am 18.9 13.1 9.4 54 5.0 N 30 41 16 22 1014.4 1014.4 0.0
29/10:30am 18.2 11.4 7.9 51 5.3 N 33 44 18 24 1014.8 1014.8 0.0
29/10:00am 18.1 11.4 8.1 52 5.1 N 33 43 18 23 1015.2 1015.2 0.0
29/09:30am 15.9 9.5 7.1 56 4.4 N 30 37 16 20 1015.5 1015.5 0.0
29/09:00am 15.5 9.2 7.3 58 4.1 N 30 43 16 23 1015.8 1015.9 0.0
29/08:30am 14.1 7.5 6.2 59 3.8 N 30 39 16 21 1015.8 1015.9 0.0
29/08:00am 12.6 6.3 5.8 63 3.2 N 28 35 15 19 1015.9 1016.0 0.0
29/07:30am 12.4 5.6 4.9 60 3.5 N 30 39 16 21 1015.6 1015.6 0.0
29/07:00am 11.8 5.3 4.8 62 3.2 N 28 35 15 19 1015.6 1015.6 0.0
29/06:30am 11.1 4.9 4.1 62 3.1 N 26 33 14 18 1015.3 1015.3 0.0
29/06:00am 11.0 4.4 4.0 62 3.1 N 28 35 15 19 1015.1 1015.1 0.0
29/05:30am 11.5 5.3 4.3 61 3.3 N 26 35 14 19 1015.0 1015.0 0.0
29/05:00am 11.5 5.3 4.5 62 3.2 N 26 33 14 18 1014.9 1014.9 0.0
29/04:30am 11.4 5.3 4.6 63 3.1 N 26 32 14 17 1015.0 1015.0 0.0
29/04:00am 12.6 6.5 4.6 58 3.7 N 26 37 14 20 1015.1 1015.1 0.0
29/03:30am 11.7 5.6 4.9 63 3.1 N 26 32 14 17 1015.2 1015.2 0.0
29/03:00am 11.9 5.9 5.1 63 3.1 N 26 32 14 17 1015.3 1015.3 0.0
29/02:30am 12.3 6.7 5.2 62 3.3 N 24 32 13 17 1015.5 1015.5 0.0
29/02:00am 12.8 6.8 5.2 60 3.5 NNE 26 33 14 18 1015.6 1015.6 0.0
29/01:30am 13.4 7.5 5.6 59 3.7 NNE 26 35 14 19 1015.9 1016.0 0.0
29/01:00am 13.2 7.3 5.9 61 3.5 NNE 26 33 14 18 1016.2 1016.3 0.0
29/12:30am 13.0 7.5 5.9 62 3.4 NNE 24 33 13 18 1016.2 1016.3 0.0
29/12:00am 12.9 7.8 6.0 63 3.3 NNE 22 30 12 16 1016.2 1016.3 0.0
 
Date/Time
WST
Temp
°C
App
Temp
°C
Dew
Point
Rel
Hum
%
Delta-T
°C
Wind Press
QNH
hPa
Press
MSL
hPa
Rain
since 9 am
mm
Dir
 
Spd
km/h
Gust
km/h
Spd
kts
Gust
kts
28/11:30pm 13.4 8.4 6.3 62 3.4 NNE 22 28 12 15 1016.5 1016.5 0.0
28/11:00pm 14.2 9.2 6.6 60 3.7 NNE 22 30 12 16 1016.8 1016.8 0.0
28/10:30pm 14.9 9.9 6.5 57 4.1 NNE 22 28 12 15 1016.9 1016.9 0.0
28/10:00pm 15.4 10.1 6.7 56 4.3 NNE 24 33 13 18 1017.0 1017.0 0.0
28/09:30pm 16.3 11.0 6.7 53 4.8 NNE 24 33 13 18 1017.1 1017.1 0.0
28/09:00pm 16.3 11.0 7.0 54 4.6 NNE 24 32 13 17 1017.1 1017.1 0.0
28/08:30pm 15.9 10.7 7.4 57 4.3 NNE 24 33 13 18 1017.0 1017.0 0.0
28/08:00pm 15.8 11.1 7.6 58 4.1 NNE 22 32 12 17 1016.7 1016.7 0.0
28/07:30pm 15.9 11.6 7.9 59 4.0 NNE 20 28 11 15 1016.6 1016.6 0.0
28/07:00pm 17.1 13.2 8.8 58 4.3 NNE 19 24 10 13 1016.5 1016.5 0.0
28/06:30pm 17.4 14.9 9.6 60 4.1 NE 13 19 7 10 1016.3 1016.4 0.0
28/06:00pm 17.6 15.9 11.2 66 3.5 NNE 11 13 6 7 1016.2 1016.3 0.0
28/05:30pm 18.8 16.8 11.4 62 4.1 NNE 13 15 7 8 1015.9 1016.0 0.0
28/05:00pm 20.3 18.8 11.8 58 4.7 NNE 11 15 6 8 1015.7 1015.7 0.0
28/04:30pm 19.6 17.4 12.1 62 4.2 N 15 17 8 9 1015.7 1015.7 0.0
28/04:00pm 21.4 18.9 12.3 56 5.2 N 17 22 9 12 1015.8 1015.9 0.0
28/03:30pm 22.1 18.2 10.9 49 6.2 N 22 26 12 14 1015.8 1015.9 0.0
28/03:00pm 22.1 18.1 10.6 48 6.3 N 22 30 12 16 1016.0 1016.1 0.0
28/02:30pm 22.0 18.1 10.8 49 6.2 N 22 28 12 15 1016.1 1016.2 0.0
28/02:00pm 22.1 17.8 12.1 53 5.7 N 26 37 14 20 1016.3 1016.4 0.0
28/01:30pm 20.9 16.6 10.7 52 5.6 NNE 24 37 13 20 1016.7 1016.7 0.0
28/01:00pm 20.5 16.2 10.6 53 5.4 NNE 24 32 13 17 1017.1 1017.1 0.0
28/12:30pm 19.1 15.1 10.4 57 4.7 N 22 32 12 17 1017.6 1017.6 0.0
28/12:00pm 18.6 13.3 9.9 57 4.6 N 28 37 15 20 1018.2 1018.2 0.0
28/11:30am 17.0 10.4 8.4 57 4.4 NNE 33 44 18 24 1018.7 1018.7 0.0
28/11:25am 17.0 10.6 8.4 57 4.4 NNE 32 50 17 27 1018.6 1018.6 0.0
28/11:00am 16.6 10.0 8.6 59 4.1 N 33 46 18 25 1019.0 1019.0 0.0
28/10:30am 16.2 9.2 8.4 60 4.0 N 35 48 19 26 1019.3 1019.3 0.0
28/10:00am 14.8 8.1 8.3 65 3.3 NNE 33 46 18 25 1019.8 1019.8 0.0
28/09:30am 14.5 6.8 8.5 67 3.0 N 39 56 21 30 1020.3 1020.3 0.0
28/09:04am 12.9 5.0 8.0 72 2.4 NNE 39 57 21 31 1020.3 1020.3 0.0
28/09:00am 13.9 6.5 8.3 69 2.8 NNE 37 54 20 29 1020.4 1020.4 0.0
28/08:59am 14.0 7.0 8.4 69 2.8 NNE 35 54 19 29 1020.5 1020.5 0.0
28/08:30am 12.8 6.1 8.3 74 2.2 NNE 33 50 18 27 1020.8 1020.8 0.0
28/08:22am 12.2 5.7 8.3 77 1.9 N 32 50 17 27 1020.8 1020.8 0.0
28/08:00am 11.0 4.4 7.9 81 1.5 N 32 43 17 23 1021.0 1021.0 0.0
28/07:30am 10.9 4.7 7.8 81 1.5 NNE 30 41 16 22 1020.8 1020.8 0.0
28/07:00am 10.5 4.2 7.4 81 1.5 NNE 30 44 16 24 1020.6 1020.6 0.0
28/06:30am 10.4 3.7 7.5 82 1.4 NNE 32 41 17 22 1020.6 1020.6 0.0
28/06:00am 9.9 4.0 7.7 86 1.1 NNE 28 39 15 21 1020.3 1020.3 0.0
28/05:30am 9.9 4.0 7.7 86 1.1 NNE 28 39 15 21 1020.3 1020.3 0.0
28/05:00am 9.7 3.5 7.8 88 0.9 NNE 30 41 16 22 1020.3 1020.3 0.0
28/04:30am 9.5 3.6 7.6 88 0.9 NNE 28 41 15 22 1020.0 1020.0 0.0
28/04:00am 9.3 3.4 7.4 88 0.9 NNE 28 41 15 22 1020.0 1020.0 0.0
28/03:30am 9.1 3.2 7.5 90 0.8 NNE 28 35 15 19 1020.1 1020.1 0.0
28/03:00am 8.9 3.4 7.5 91 0.7 NNE 26 37 14 20 1020.3 1020.3 0.0
28/02:30am 8.8 3.3 7.4 91 0.7 NNE 26 35 14 19 1020.5 1020.5 0.0
28/02:00am 8.8 3.6 7.1 89 0.8 NNE 24 32 13 17 1020.9 1020.9 0.0
28/01:30am 9.1 4.3 7.2 88 0.9 NE 22 32 12 17 1021.2 1021.2 0.0
28/01:00am 9.6 4.8 7.4 86 1.0 NE 22 35 12 19 1021.5 1021.5 0.0
28/12:30am 9.8 5.5 7.7 87 1.0 NE 20 33 11 18 1021.6 1021.6 0.0
28/12:00am 9.9 5.8 8.0 88 0.9 NE 19 28 10 15 1021.7 1021.7 0.0
 
Date/Time
WST
Temp
°C
App
Temp
°C
Dew
Point
Rel
Hum
%
Delta-T
°C
Wind Press
QNH
hPa
Press
MSL
hPa
Rain
since 9 am
mm
Dir
 
Spd
km/h
Gust
km/h
Spd
kts
Gust
kts
27/11:30pm 9.7 5.7 8.1 90 0.8 NE 19 32 10 17 1021.9 1022.0 0.0
27/11:00pm 10.0 6.0 8.4 90 0.8 NE 19 30 10 16 1022.1 1022.2 0.0
27/10:30pm 10.3 6.4 8.6 89 0.8 NE 19 32 10 17 1022.5 1022.6 0.0
27/10:00pm 10.6 6.7 8.7 88 0.9 NE 19 28 10 15 1022.6 1022.7 0.0
27/09:30pm 10.7 6.8 8.5 86 1.1 ENE 19 26 10 14 1022.7 1022.8 0.0
27/09:00pm 11.1 6.7 7.6 79 1.7 ENE 20 30 11 16 1022.8 1022.9 0.0
27/08:30pm 12.1 7.8 7.0 71 2.5 NE 19 28 10 15 1022.6 1022.7 0.0
27/08:00pm 12.1 8.6 7.4 73 2.3 NE 15 24 8 13 1022.7 1022.8 0.0
27/07:30pm 11.6 9.2 8.6 82 1.5 ENE 11 17 6 9 1022.6 1022.7 0.0
27/07:00pm 12.1 9.9 9.3 83 1.4 ENE 11 15 6 8 1022.5 1022.6 0.0
27/06:30pm 13.0 10.4 9.4 79 1.8 E 13 17 7 9 1022.4 1022.5 0.0
27/06:00pm 14.2 11.7 9.6 74 2.4 E 13 17 7 9 1022.3 1022.4 0.0
27/05:30pm 14.7 12.6 9.7 72 2.6 ENE 11 17 6 9 1022.2 1022.3 0.0
27/05:00pm 15.8 13.3 9.7 67 3.2 ENE 13 19 7 10 1021.9 1022.0 0.0
27/04:30pm 17.4 14.1 9.6 60 4.1 E 17 24 9 13 1021.8 1021.9 0.0
27/04:00pm 18.2 15.2 9.3 56 4.7 ENE 15 24 8 13 1021.8 1021.9 0.0
27/03:30pm 18.4 15.2 8.4 52 5.2 ENE 15 20 8 11 1021.9 1022.0 0.0
27/03:00pm 18.8 15.7 8.7 52 5.3 ENE 15 24 8 13 1021.8 1021.9 0.0
27/02:30pm 18.5 15.6 9.6 56 4.7 ENE 15 24 8 13 1021.7 1021.7 0.0
27/02:00pm 19.2 16.3 9.7 54 5.1 NE 15 22 8 12 1021.9 1022.0 0.0

Other Formats:

Comma delimited format used in spreadsheet applications
http://www.bom.gov.au/fwo/IDW60801/IDW60801.95638.axf

JavaScript Object Notation format (JSON) in row-major order
http://www.bom.gov.au/fwo/IDW60801/IDW60801.95638.json